createdAt,value
2019-05-09T00:00:45.907Z,-57
2019-05-09T00:01:47.394Z,-57
2019-05-09T00:02:46.569Z,-57
2019-05-09T00:03:47.397Z,-57
2019-05-09T00:04:53.718Z,-57
2019-05-09T00:05:54.059Z,-57
2019-05-09T00:06:54.433Z,-57
2019-05-09T00:07:54.797Z,-57
2019-05-09T00:08:53.420Z,-57
2019-05-09T00:09:55.051Z,-57
2019-05-09T00:10:54.234Z,-57
2019-05-09T00:11:55.489Z,-58
2019-05-09T00:12:56.864Z,-56
2019-05-09T00:13:58.277Z,-57
2019-05-09T00:14:59.138Z,-57
2019-05-09T00:15:57.786Z,-57
2019-05-09T00:16:56.101Z,-57
2019-05-09T00:17:56.997Z,-56
2019-05-09T00:18:58.483Z,-56
2019-05-09T00:20:03.627Z,-57
2019-05-09T00:21:04.679Z,-57
2019-05-09T00:22:05.709Z,-57
2019-05-09T00:23:04.187Z,-57
2019-05-09T00:24:05.511Z,-57
2019-05-09T00:25:06.375Z,-56
2019-05-09T00:26:04.590Z,-56
2019-05-09T00:27:05.218Z,-57
2019-05-09T00:28:05.296Z,-57
2019-05-09T00:29:03.962Z,-57
2019-05-09T00:30:09.398Z,-57
2019-05-09T00:31:19.496Z,-56
2019-05-09T00:32:17.446Z,-56
2019-05-09T00:33:15.799Z,-56
2019-05-09T00:34:14.426Z,-56
2019-05-09T00:35:14.006Z,-56
2019-05-09T00:36:14.506Z,-56
2019-05-09T00:37:14.321Z,-56
2019-05-09T00:38:15.208Z,-57
2019-05-09T00:39:13.525Z,-56
2019-05-09T00:40:13.187Z,-57
2019-05-09T00:41:20.022Z,-57
2019-05-09T00:42:20.042Z,-57
2019-05-09T00:43:18.598Z,-56
2019-05-09T00:44:18.350Z,-57
2019-05-09T00:45:18.154Z,-56
2019-05-09T00:46:18.683Z,-57
2019-05-09T00:47:16.830Z,-56
2019-05-09T00:48:15.543Z,-57
2019-05-09T00:49:20.439Z,-57
2019-05-09T00:50:18.755Z,-56
2019-05-09T00:51:16.847Z,-57
2019-05-09T00:52:17.702Z,-57
2019-05-09T00:53:16.904Z,-57
2019-05-09T00:54:24.184Z,-56
2019-05-09T00:55:23.907Z,-56
2019-05-09T00:56:20.718Z,-57
2019-05-09T00:57:19.025Z,-57
2019-05-09T00:58:17.639Z,-56
2019-05-09T00:59:17.859Z,-57
2019-05-09T01:00:17.038Z,-56
2019-05-09T01:01:18.334Z,-57
2019-05-09T01:02:18.524Z,-56
2019-05-09T01:03:23.433Z,-56
2019-05-09T01:04:25.347Z,-56
2019-05-09T01:05:24.057Z,-57
2019-05-09T01:06:23.931Z,-56
2019-05-09T01:07:23.280Z,-56
2019-05-09T01:08:24.157Z,-57
2019-05-09T01:09:24.050Z,-56
2019-05-09T01:10:23.668Z,-56
2019-05-09T01:11:24.528Z,-56
2019-05-09T01:12:29.955Z,-57
2019-05-09T01:13:27.905Z,-57
2019-05-09T01:14:34.170Z,-56
2019-05-09T01:15:34.727Z,-56
2019-05-09T01:16:33.703Z,-56
2019-05-09T01:17:33.527Z,-56
2019-05-09T01:18:29.895Z,-57
2019-05-09T01:19:29.159Z,-57
2019-05-09T01:20:30.753Z,-56
2019-05-09T01:21:33.160Z,-56
2019-05-09T01:22:29.418Z,-56
2019-05-09T01:23:29.596Z,-57
2019-05-09T01:24:29.792Z,-57
2019-05-09T01:25:33.540Z,-56
2019-05-09T01:26:33.266Z,-57
2019-05-09T01:27:30.197Z,-56
2019-05-09T01:28:30.611Z,-56
2019-05-09T01:29:29.048Z,-57
2019-05-09T01:30:29.558Z,-56
2019-05-09T01:31:30.156Z,-57
2019-05-09T01:32:28.444Z,-56
2019-05-09T01:33:27.390Z,-56
2019-05-09T01:34:33.082Z,-56
2019-05-09T01:35:33.844Z,-57
2019-05-09T01:36:34.608Z,-56
2019-05-09T01:37:36.195Z,-56
2019-05-09T01:38:35.646Z,-56
2019-05-09T01:39:35.494Z,-56
2019-05-09T01:40:36.287Z,-56
2019-05-09T01:41:40.693Z,-56
2019-05-09T01:42:43.232Z,-56
2019-05-09T01:43:41.259Z,-56
2019-05-09T01:44:43.465Z,-57
2019-05-09T01:45:47.200Z,-56
2019-05-09T01:46:47.552Z,-56
2019-05-09T01:47:48.210Z,-56
2019-05-09T01:48:46.655Z,-56
2019-05-09T01:49:48.288Z,-56
2019-05-09T01:50:47.141Z,-57
2019-05-09T01:51:45.968Z,-56
2019-05-09T01:52:45.518Z,-56
2019-05-09T01:53:45.006Z,-56
2019-05-09T01:54:43.869Z,-56
2019-05-09T01:55:46.115Z,-56
2019-05-09T01:56:49.731Z,-56
2019-05-09T01:57:50.427Z,-56
2019-05-09T01:58:48.640Z,-56
2019-05-09T01:59:50.754Z,-56
2019-05-09T02:00:50.236Z,-56
2019-05-09T02:01:48.289Z,-56
2019-05-09T02:02:46.710Z,-56
2019-05-09T02:03:46.546Z,-57
2019-05-09T02:04:56.246Z,-56
2019-05-09T02:05:54.302Z,-56
2019-05-09T02:06:53.861Z,-56
2019-05-09T02:07:51.492Z,-56
2019-05-09T02:08:49.386Z,-57
2019-05-09T02:09:50.352Z,-57
2019-05-09T02:10:55.336Z,-57
2019-05-09T02:11:54.669Z,-56
2019-05-09T02:12:53.809Z,-57
2019-05-09T02:13:53.271Z,-56
2019-05-09T02:14:54.149Z,-56
2019-05-09T02:15:53.955Z,-57
2019-05-09T02:16:53.592Z,-57
2019-05-09T02:18:01.393Z,-56
2019-05-09T02:18:04.242Z,-56
2019-05-09T02:18:05.433Z,-56
2019-05-09T02:18:56.486Z,-56
2019-05-09T02:19:57.800Z,-57
2019-05-09T02:20:59.385Z,-57
2019-05-09T02:21:57.247Z,-56
2019-05-09T02:23:03.530Z,-57
2019-05-09T02:23:59.721Z,-57
2019-05-09T02:24:58.250Z,-57
2019-05-09T02:25:56.256Z,-56
2019-05-09T02:27:00.200Z,-56
2019-05-09T02:28:03.480Z,-56
2019-05-09T02:29:03.089Z,-56
2019-05-09T02:29:59.760Z,-56
2019-05-09T02:31:07.689Z,-57
2019-05-09T02:32:07.349Z,-56
2019-05-09T02:33:07.844Z,-57
2019-05-09T02:34:09.903Z,-56
2019-05-09T02:35:10.137Z,-56
2019-05-09T02:36:09.987Z,-56
2019-05-09T02:37:13.214Z,-56
2019-05-09T02:38:20.202Z,-56
2019-05-09T02:39:20.305Z,-56
2019-05-09T02:40:18.819Z,-57
2019-05-09T02:41:19.596Z,-56
2019-05-09T02:42:19.573Z,-56
2019-05-09T02:43:18.722Z,-56
2019-05-09T02:44:15.756Z,-56
2019-05-09T02:45:19.533Z,-56
2019-05-09T02:46:24.578Z,-57
2019-05-09T02:47:30.538Z,-56
2019-05-09T02:48:45.097Z,-56
2019-05-09T02:49:44.419Z,-56
2019-05-09T02:50:48.421Z,-56
2019-05-09T02:51:44.148Z,-56
2019-05-09T02:52:48.751Z,-56
2019-05-09T02:53:44.871Z,-56
2019-05-09T02:54:42.969Z,-57
2019-05-09T02:55:41.372Z,-57
2019-05-09T02:56:39.280Z,-57
2019-05-09T02:57:48.961Z,-56
2019-05-09T02:58:48.513Z,-56
2019-05-09T02:59:43.754Z,-56
2019-05-09T03:00:42.864Z,-56
2019-05-09T03:01:42.181Z,-56
2019-05-09T03:02:48.873Z,-56
2019-05-09T03:03:49.385Z,-56
2019-05-09T03:04:50.493Z,-56
2019-05-09T03:05:48.846Z,-57
2019-05-09T03:06:49.258Z,-57
2019-05-09T03:07:48.935Z,-56
2019-05-09T03:08:49.254Z,-56
2019-05-09T03:10:08.936Z,-56
2019-05-09T03:11:04.486Z,-56
2019-05-09T03:12:21.408Z,-57
2019-05-09T03:12:23.042Z,-57
2019-05-09T03:12:26.524Z,-57
2019-05-09T03:13:08.686Z,-57
2019-05-09T03:14:03.972Z,-57
2019-05-09T03:15:09.446Z,-56
2019-05-09T03:16:14.046Z,-57
2019-05-09T03:17:12.359Z,-56
2019-05-09T03:18:10.332Z,-56
2019-05-09T03:19:09.526Z,-56
2019-05-09T03:20:09.534Z,-56
2019-05-09T03:21:08.898Z,-56
2019-05-09T03:22:11.182Z,-56
2019-05-09T03:23:09.479Z,-56
2019-05-09T03:24:13.476Z,-56
2019-05-09T03:25:14.392Z,-56
2019-05-09T03:26:23.824Z,-56
2019-05-09T03:27:22.246Z,-56
2019-05-09T03:28:20.785Z,-55
2019-05-09T03:29:24.535Z,-56
2019-05-09T03:30:28.921Z,-56
2019-05-09T03:31:24.369Z,-56
2019-05-09T03:32:25.548Z,-56
2019-05-09T03:33:35.311Z,-57
2019-05-09T03:33:39.575Z,-57
2019-05-09T03:34:30.112Z,-56
2019-05-09T03:35:28.151Z,-56
2019-05-09T03:36:33.765Z,-57
2019-05-09T03:37:34.648Z,-57
2019-05-09T03:38:33.801Z,-57
2019-05-09T03:39:39.298Z,-56
2019-05-09T03:40:40.308Z,-57
2019-05-09T03:41:42.083Z,-56
2019-05-09T03:42:43.607Z,-56
2019-05-09T03:43:41.083Z,-56
2019-05-09T03:44:42.688Z,-57
2019-05-09T03:45:44.248Z,-56
2019-05-09T03:46:44.810Z,-56
2019-05-09T03:47:42.557Z,-57
2019-05-09T03:48:41.460Z,-56
2019-05-09T03:49:42.872Z,-57
2019-05-09T03:50:42.287Z,-56
2019-05-09T03:51:41.575Z,-56
2019-05-09T03:52:48.933Z,-56
2019-05-09T03:53:50.035Z,-56
2019-05-09T03:54:48.038Z,-56
2019-05-09T03:55:47.542Z,-56
2019-05-09T03:56:52.819Z,-56
2019-05-09T03:57:54.210Z,-56
2019-05-09T03:58:52.661Z,-56
2019-05-09T03:59:53.388Z,-56
2019-05-09T04:00:51.176Z,-56
2019-05-09T04:01:50.477Z,-57
2019-05-09T04:02:50.374Z,-56
2019-05-09T04:03:49.633Z,-56
2019-05-09T04:04:48.205Z,-56
2019-05-09T04:05:56.651Z,-56
2019-05-09T04:05:58.696Z,-56
2019-05-09T04:06:02.114Z,-56
2019-05-09T04:06:47.980Z,-56
2019-05-09T04:07:47.916Z,-56
2019-05-09T04:08:48.035Z,-57
2019-05-09T04:09:48.016Z,-56
2019-05-09T04:10:49.953Z,-57
2019-05-09T04:11:45.177Z,-56
2019-05-09T04:12:53.903Z,-56
2019-05-09T04:12:55.825Z,-56
2019-05-09T04:12:58.968Z,-56
2019-05-09T04:13:47.630Z,-56
2019-05-09T04:14:48.261Z,-57
2019-05-09T04:15:47.756Z,-56
2019-05-09T04:16:44.442Z,-56
2019-05-09T04:17:43.201Z,-56
2019-05-09T04:18:44.166Z,-57
2019-05-09T04:19:43.917Z,-56
2019-05-09T04:20:43.612Z,-57
2019-05-09T04:21:43.586Z,-57
2019-05-09T04:22:44.508Z,-56
2019-05-09T04:23:44.459Z,-56
2019-05-09T04:24:42.230Z,-56
2019-05-09T04:25:44.163Z,-56
2019-05-09T04:26:42.945Z,-57
2019-05-09T04:27:49.443Z,-57
2019-05-09T04:28:50.543Z,-56
2019-05-09T04:29:48.813Z,-57
2019-05-09T04:30:49.492Z,-56
2019-05-09T04:31:51.049Z,-57
2019-05-09T04:32:52.844Z,-57
2019-05-09T04:33:59.016Z,-56
2019-05-09T04:35:08.026Z,-56
2019-05-09T04:36:04.573Z,-57
2019-05-09T04:37:03.668Z,-57
2019-05-09T04:38:01.346Z,-56
2019-05-09T04:39:07.598Z,-56
2019-05-09T04:40:04.455Z,-56
2019-05-09T04:41:02.663Z,-56
2019-05-09T04:42:05.448Z,-56
2019-05-09T04:43:18.329Z,-56
2019-05-09T04:43:21.244Z,-56
2019-05-09T04:44:17.192Z,-56
2019-05-09T04:44:19.299Z,-56
2019-05-09T04:44:21.768Z,-56
2019-05-09T04:45:10.205Z,-57
2019-05-09T04:46:07.990Z,-57
2019-05-09T04:47:08.763Z,-57
2019-05-09T04:48:07.783Z,-57
2019-05-09T04:49:08.214Z,-56
2019-05-09T04:50:07.601Z,-56
2019-05-09T04:51:04.579Z,-57
2019-05-09T04:52:07.662Z,-56
2019-05-09T04:53:08.026Z,-57
2019-05-09T04:54:04.523Z,-57
2019-05-09T04:55:07.968Z,-56
2019-05-09T04:56:07.221Z,-57
2019-05-09T04:57:07.958Z,-56
2019-05-09T04:58:06.074Z,-56
2019-05-09T04:59:04.041Z,-56
2019-05-09T05:00:10.097Z,-55
2019-05-09T05:01:09.738Z,-56
2019-05-09T05:02:14.866Z,-57
2019-05-09T05:03:12.987Z,-56
2019-05-09T05:04:11.792Z,-57
2019-05-09T05:05:14.793Z,-57
2019-05-09T05:06:13.378Z,-56
2019-05-09T05:07:18.065Z,-56
2019-05-09T05:08:18.010Z,-56
2019-05-09T05:09:20.303Z,-56
2019-05-09T05:10:15.379Z,-56
2019-05-09T05:11:14.369Z,-56
2019-05-09T05:12:18.567Z,-56
2019-05-09T05:13:26.005Z,-57
2019-05-09T05:13:26.640Z,-57
2019-05-09T05:13:29.796Z,-57
2019-05-09T05:14:19.518Z,-57
2019-05-09T05:15:20.516Z,-56
2019-05-09T05:16:20.839Z,-56
2019-05-09T05:17:18.700Z,-56
2019-05-09T05:18:20.287Z,-56
2019-05-09T05:19:17.917Z,-56
2019-05-09T05:20:18.747Z,-57
2019-05-09T05:21:19.942Z,-56
2019-05-09T05:22:18.166Z,-56
2019-05-09T05:23:14.685Z,-56
2019-05-09T05:24:20.502Z,-57
2019-05-09T05:25:19.088Z,-57
2019-05-09T05:26:18.314Z,-56
2019-05-09T05:27:18.652Z,-57
2019-05-09T05:28:20.424Z,-56
2019-05-09T05:29:18.947Z,-57
2019-05-09T05:30:18.756Z,-57
2019-05-09T05:31:22.824Z,-56
2019-05-09T05:32:23.001Z,-57
2019-05-09T05:33:22.904Z,-57
2019-05-09T05:34:21.194Z,-57
2019-05-09T05:35:22.813Z,-57
2019-05-09T05:36:21.056Z,-56
2019-05-09T05:37:19.148Z,-57
2019-05-09T05:38:17.743Z,-57
2019-05-09T05:39:21.313Z,-57
2019-05-09T05:40:20.256Z,-57
2019-05-09T05:41:19.906Z,-57
2019-05-09T05:42:22.266Z,-56
2019-05-09T05:43:22.241Z,-56
2019-05-09T05:44:21.282Z,-56
2019-05-09T05:45:21.817Z,-56
2019-05-09T05:46:28.418Z,-57
2019-05-09T05:47:26.562Z,-57
2019-05-09T05:47:29.441Z,-57
2019-05-09T05:48:24.233Z,-57
2019-05-09T05:49:22.332Z,-57
2019-05-09T05:50:22.656Z,-56
2019-05-09T05:51:21.385Z,-57
2019-05-09T05:52:30.478Z,-57
2019-05-09T05:53:30.144Z,-57
2019-05-09T05:54:29.447Z,-56
2019-05-09T05:55:30.862Z,-56
2019-05-09T05:56:37.763Z,-57
2019-05-09T05:57:39.709Z,-57
2019-05-09T05:58:39.615Z,-57
2019-05-09T05:59:40.976Z,-57
2019-05-09T06:00:48.109Z,-57
2019-05-09T06:01:47.727Z,-56
2019-05-09T06:02:47.878Z,-56
2019-05-09T06:03:44.629Z,-56
2019-05-09T06:04:43.180Z,-56
2019-05-09T06:05:41.782Z,-56
2019-05-09T06:06:40.144Z,-56
2019-05-09T06:07:41.273Z,-57
2019-05-09T06:08:39.212Z,-57
2019-05-09T06:09:37.923Z,-57
2019-05-09T06:10:38.832Z,-57
2019-05-09T06:11:39.281Z,-56
2019-05-09T06:12:43.331Z,-56
2019-05-09T06:13:54.474Z,-56
2019-05-09T06:13:56.558Z,-56
2019-05-09T06:13:57.498Z,-56
2019-05-09T06:14:43.926Z,-57
2019-05-09T06:15:44.311Z,-57
2019-05-09T06:16:42.847Z,-57
2019-05-09T06:17:40.968Z,-57
2019-05-09T06:18:41.171Z,-57
2019-05-09T06:19:42.781Z,-57
2019-05-09T06:20:52.582Z,-57
2019-05-09T06:21:52.392Z,-57
2019-05-09T06:22:50.093Z,-57
2019-05-09T06:23:49.061Z,-57
2019-05-09T06:24:49.834Z,-57
2019-05-09T06:25:49.939Z,-57
2019-05-09T06:26:53.440Z,-58
2019-05-09T06:27:54.741Z,-57
2019-05-09T06:28:57.666Z,-57
2019-05-09T06:29:57.931Z,-57
2019-05-09T06:30:54.319Z,-61
2019-05-09T06:31:52.185Z,-57
2019-05-09T06:32:50.537Z,-57
2019-05-09T06:33:53.341Z,-57
2019-05-09T06:33:53.706Z,-57
2019-05-09T06:34:47.698Z,-57
2019-05-09T06:35:48.142Z,-56
2019-05-09T06:36:48.831Z,-56
2019-05-09T06:37:47.806Z,-56
2019-05-09T06:38:45.212Z,-57
2019-05-09T06:39:43.233Z,-56
2019-05-09T06:40:42.883Z,-65
2019-05-09T06:41:40.743Z,-67
2019-05-09T06:42:41.196Z,-64
2019-05-09T06:43:39.601Z,-65
2019-05-09T06:44:37.505Z,-66
2019-05-09T06:45:39.125Z,-63
2019-05-09T06:45:41.646Z,-63
2019-05-09T06:46:37.814Z,-65
2019-05-09T06:47:38.227Z,-65
2019-05-09T06:48:37.778Z,-66
2019-05-09T06:49:34.032Z,-64
2019-05-09T06:50:48.222Z,-65
2019-05-09T06:51:44.445Z,-63
2019-05-09T06:52:50.404Z,-64
2019-05-09T06:53:38.491Z,-63
2019-05-09T06:54:41.312Z,-65
2019-05-09T06:55:38.327Z,-61
2019-05-09T06:56:39.066Z,-65
2019-05-09T06:57:43.067Z,-63
2019-05-09T06:58:39.121Z,-62
2019-05-09T06:59:38.209Z,-64
2019-05-09T07:00:40.133Z,-64
2019-05-09T07:01:40.071Z,-65
2019-05-09T07:02:39.023Z,-64
2019-05-09T07:03:44.177Z,-63
2019-05-09T07:04:41.991Z,-64
2019-05-09T07:05:41.957Z,-64
2019-05-09T07:06:43.287Z,-64
2019-05-09T07:07:41.434Z,-64
2019-05-09T07:08:39.189Z,-64
2019-05-09T07:09:38.432Z,-65
2019-05-09T07:10:37.727Z,-63
2019-05-09T07:11:38.078Z,-64
2019-05-09T07:12:40.155Z,-65
2019-05-09T07:13:42.263Z,-67
2019-05-09T07:14:42.565Z,-65
2019-05-09T07:15:40.758Z,-65
2019-05-09T07:16:45.046Z,-68
2019-05-09T07:17:43.662Z,-64
2019-05-09T07:18:41.441Z,-64
2019-05-09T07:19:44.264Z,-63
2019-05-09T07:20:44.090Z,-63
2019-05-09T07:21:43.646Z,-62
2019-05-09T07:22:43.513Z,-64
2019-05-09T07:23:41.245Z,-64
2019-05-09T07:24:50.612Z,-66
2019-05-09T07:25:52.575Z,-65
2019-05-09T07:26:52.663Z,-65
2019-05-09T07:27:51.456Z,-65
2019-05-09T07:28:59.555Z,-65
2019-05-09T07:29:58.823Z,-66
2019-05-09T07:30:57.411Z,-65
2019-05-09T07:31:57.297Z,-65
2019-05-09T07:32:58.184Z,-65
2019-05-09T07:34:08.599Z,-65
2019-05-09T07:35:05.333Z,-65
2019-05-09T07:36:04.620Z,-66
2019-05-09T07:37:02.542Z,-69
2019-05-09T07:38:01.323Z,-65
2019-05-09T07:39:01.296Z,-66
2019-05-09T07:40:02.813Z,-65
2019-05-09T07:41:01.008Z,-65
2019-05-09T07:42:07.718Z,-65
2019-05-09T07:43:08.388Z,-66
2019-05-09T07:44:10.719Z,-62
2019-05-09T07:45:09.481Z,-63
2019-05-09T07:46:09.212Z,-63
2019-05-09T07:47:08.649Z,-64
2019-05-09T07:48:07.646Z,-63
2019-05-09T07:49:04.781Z,-63
2019-05-09T07:50:08.556Z,-62
2019-05-09T07:51:05.088Z,-65
2019-05-09T07:52:10.347Z,-63
2019-05-09T07:53:08.581Z,-60
2019-05-09T07:54:24.025Z,-63
2019-05-09T07:54:25.114Z,-63
2019-05-09T07:54:25.657Z,-63
2019-05-09T07:55:18.130Z,-58
2019-05-09T07:56:15.631Z,-61
2019-05-09T07:57:17.940Z,-62
2019-05-09T07:58:18.954Z,-63
2019-05-09T07:59:18.151Z,-61
2019-05-09T08:00:18.364Z,-63
2019-05-09T08:01:19.269Z,-64
2019-05-09T08:02:17.753Z,-66
2019-05-09T08:03:18.367Z,-63
2019-05-09T08:04:18.374Z,-63
2019-05-09T08:05:18.555Z,-64
2019-05-09T08:06:18.377Z,-65
2019-05-09T08:07:17.554Z,-65
2019-05-09T08:08:14.717Z,-63
2019-05-09T08:09:18.697Z,-65
2019-05-09T08:10:18.569Z,-64
2019-05-09T08:11:17.993Z,-65
2019-05-09T08:12:21.131Z,-64
2019-05-09T08:13:21.551Z,-62
2019-05-09T08:14:23.150Z,-64
2019-05-09T08:15:21.655Z,-63
2019-05-09T08:16:20.881Z,-65
2019-05-09T08:17:28.569Z,-65
2019-05-09T08:18:24.859Z,-63
2019-05-09T08:19:23.094Z,-62
2019-05-09T08:20:22.927Z,-62
2019-05-09T08:21:24.474Z,-63
2019-05-09T08:22:32.803Z,-63
2019-05-09T08:23:31.235Z,-64
2019-05-09T08:24:32.932Z,-64
2019-05-09T08:25:32.442Z,-61
2019-05-09T08:26:31.366Z,-62
2019-05-09T08:27:39.113Z,-62
2019-05-09T08:28:38.963Z,-60
2019-05-09T08:29:39.296Z,-61
2019-05-09T08:30:40.114Z,-60
2019-05-09T08:31:40.084Z,-63
2019-05-09T08:32:37.719Z,-61
2019-05-09T08:33:53.940Z,-65
2019-05-09T08:34:53.071Z,-63
2019-05-09T08:35:52.799Z,-65
2019-05-09T08:36:50.689Z,-65
2019-05-09T08:37:48.564Z,-65
2019-05-09T08:38:48.490Z,-65
2019-05-09T08:39:48.604Z,-64
2019-05-09T08:40:50.267Z,-65
2019-05-09T08:41:58.984Z,-64
2019-05-09T08:42:58.843Z,-65
2019-05-09T08:43:57.868Z,-65
2019-05-09T08:44:57.770Z,-65
2019-05-09T08:45:57.631Z,-65
2019-05-09T08:46:57.741Z,-65
2019-05-09T08:47:57.777Z,-64
2019-05-09T08:48:57.612Z,-65
2019-05-09T08:49:55.603Z,-65
2019-05-09T08:51:02.790Z,-64
2019-05-09T08:52:10.044Z,-65
2019-05-09T08:52:14.909Z,-65
2019-05-09T08:52:16.138Z,-65
2019-05-09T08:53:04.261Z,-65
2019-05-09T08:54:09.409Z,-65
2019-05-09T08:55:11.005Z,-65
2019-05-09T08:56:13.109Z,-64
2019-05-09T08:57:10.067Z,-65
2019-05-09T08:58:08.265Z,-65
2019-05-09T08:59:10.704Z,-65
2019-05-09T09:00:10.107Z,-65
2019-05-09T09:01:11.579Z,-65
2019-05-09T09:02:18.755Z,-65
2019-05-09T09:02:22.309Z,-65
2019-05-09T09:03:13.564Z,-65
2019-05-09T09:04:11.822Z,-65
2019-05-09T09:05:14.022Z,-65
2019-05-09T09:06:10.391Z,-65
2019-05-09T09:07:09.053Z,-65
2019-05-09T09:08:10.389Z,-65
2019-05-09T09:09:08.919Z,-65
2019-05-09T09:10:08.613Z,-65
2019-05-09T09:11:08.658Z,-65
2019-05-09T09:12:26.177Z,-65
2019-05-09T09:12:27.092Z,-65
2019-05-09T09:12:30.478Z,-65
2019-05-09T09:13:13.121Z,-65
2019-05-09T09:14:11.275Z,-65
2019-05-09T09:15:12.315Z,-65
2019-05-09T09:16:19.981Z,-65
2019-05-09T09:16:22.607Z,-65
2019-05-09T09:17:18.914Z,-65
2019-05-09T09:18:18.238Z,-65
2019-05-09T09:19:17.907Z,-65
2019-05-09T09:20:18.015Z,-64
2019-05-09T09:21:14.308Z,-65
2019-05-09T09:22:15.004Z,-65
2019-05-09T09:23:14.416Z,-65
2019-05-09T09:24:12.609Z,-65
2019-05-09T09:25:11.674Z,-65
2019-05-09T09:26:11.074Z,-65
2019-05-09T09:27:11.479Z,-65
2019-05-09T09:28:10.111Z,-65
2019-05-09T09:29:09.387Z,-65
2019-05-09T09:30:19.951Z,-65
2019-05-09T09:30:20.784Z,-65
2019-05-09T09:30:24.761Z,-65
2019-05-09T09:31:08.215Z,-65
2019-05-09T09:34:18.175Z,-65
2019-05-09T09:35:18.688Z,-65
2019-05-09T09:36:18.277Z,-65
2019-05-09T09:37:18.680Z,-65
2019-05-09T09:38:20.507Z,-65
2019-05-09T09:39:18.577Z,-65
2019-05-09T09:40:17.977Z,-65
2019-05-09T09:41:18.286Z,-65
2019-05-09T09:42:19.906Z,-66
2019-05-09T09:43:25.082Z,-64
2019-05-09T09:44:28.508Z,-65
2019-05-09T09:45:28.047Z,-66
2019-05-09T09:46:32.399Z,-60
2019-05-09T09:47:32.415Z,-69
2019-05-09T09:48:30.675Z,-77
2019-05-09T09:49:29.429Z,-70
2019-05-09T09:50:33.777Z,-72
2019-05-09T09:51:31.524Z,-73
2019-05-09T09:52:34.450Z,-65
2019-05-09T09:53:30.910Z,-70
2019-05-09T09:54:38.620Z,-74
2019-05-09T09:55:38.193Z,-77
2019-05-09T09:56:42.852Z,-82
2019-05-09T09:57:41.324Z,-68
2019-05-09T09:58:41.279Z,-78
2019-05-09T09:59:40.992Z,-72
2019-05-09T10:00:39.572Z,-70
2019-05-09T10:01:38.825Z,-73
2019-05-09T10:02:43.001Z,-76
2019-05-09T10:03:49.313Z,-75
2019-05-09T10:04:48.700Z,-70
2019-05-09T10:05:48.589Z,-72
2019-05-09T10:06:48.222Z,-68
2019-05-09T10:07:47.755Z,-71
2019-05-09T10:08:48.849Z,-71
2019-05-09T10:09:44.223Z,-74
2019-05-09T10:10:42.004Z,-67
2019-05-09T10:11:40.715Z,-69
2019-05-09T10:12:44.339Z,-75
2019-05-09T10:13:42.438Z,-77
2019-05-09T10:14:39.977Z,-73
2019-05-09T10:15:38.489Z,-77
2019-05-09T10:16:35.551Z,-71
2019-05-09T10:17:33.756Z,-64
2019-05-09T10:18:38.119Z,-70
2019-05-09T10:19:35.356Z,-69
2019-05-09T10:20:34.554Z,-74
2019-05-09T10:21:32.625Z,-79
2019-05-09T10:22:30.594Z,-69
2019-05-09T10:23:29.297Z,-74
2019-05-09T10:24:34.026Z,-71
2019-05-09T10:25:32.385Z,-73
2019-05-09T10:26:31.887Z,-72
2019-05-09T10:27:30.643Z,-68
2019-05-09T10:28:30.033Z,-71
2019-05-09T10:29:31.132Z,-72
2019-05-09T10:30:28.710Z,-67
2019-05-09T10:31:31.955Z,-74
2019-05-09T10:32:29.205Z,-68
2019-05-09T10:33:28.038Z,-64
2019-05-09T10:34:24.781Z,-71
2019-05-09T10:35:27.920Z,-66
2019-05-09T10:36:28.940Z,-72
2019-05-09T10:37:26.516Z,-68
2019-05-09T10:38:27.839Z,-72
2019-05-09T10:39:30.273Z,-77
2019-05-09T10:40:28.206Z,-75
2019-05-09T10:41:27.011Z,-77
2019-05-09T10:42:24.698Z,-74
2019-05-09T10:43:34.710Z,-70
2019-05-09T10:43:35.923Z,-70
2019-05-09T10:43:37.845Z,-70
2019-05-09T10:44:21.254Z,-68
2019-05-09T10:45:21.072Z,-80
2019-05-09T10:46:24.604Z,-66
2019-05-09T10:47:27.198Z,-78
2019-05-09T10:48:25.122Z,-76
2019-05-09T10:49:27.690Z,-78
2019-05-09T10:50:34.993Z,-76
2019-05-09T10:51:31.297Z,-78
2019-05-09T10:52:30.886Z,-73
2019-05-09T10:53:28.797Z,-68
2019-05-09T10:54:27.934Z,-69
2019-05-09T10:55:28.369Z,-69
2019-05-09T10:56:27.840Z,-68
2019-05-09T10:57:23.298Z,-72
2019-05-09T10:58:23.789Z,-74
2019-05-09T10:59:19.990Z,-69
2019-05-09T11:00:18.675Z,-73
2019-05-09T11:01:18.560Z,-69
2019-05-09T11:02:17.506Z,-71
2019-05-09T11:03:14.194Z,-68
2019-05-09T11:04:13.976Z,-73
2019-05-09T11:05:14.362Z,-74
2019-05-09T11:06:12.101Z,-69
2019-05-09T11:07:14.092Z,-70
2019-05-09T11:08:17.855Z,-76
2019-05-09T11:09:13.287Z,-69
2019-05-09T11:10:25.766Z,-75
2019-05-09T11:10:28.376Z,-75
2019-05-09T11:10:29.399Z,-75
2019-05-09T11:11:18.720Z,-71
2019-05-09T11:12:21.977Z,-71
2019-05-09T11:13:20.627Z,-68
2019-05-09T11:14:32.486Z,-70
2019-05-09T11:14:34.719Z,-70
2019-05-09T11:14:36.868Z,-70
2019-05-09T11:15:22.808Z,-74
2019-05-09T11:16:20.612Z,-66
2019-05-09T11:17:21.790Z,-65
2019-05-09T11:18:18.552Z,-72
2019-05-09T11:19:14.923Z,-71
2019-05-09T11:20:13.638Z,-71
2019-05-09T11:21:14.318Z,-68
2019-05-09T11:22:18.465Z,-73
2019-05-09T11:23:19.339Z,-73
2019-05-09T11:24:19.332Z,-71
2019-05-09T11:25:28.109Z,-65
2019-05-09T11:26:30.553Z,-71
2019-05-09T11:27:31.058Z,-71
2019-05-09T11:28:31.080Z,-73
2019-05-09T11:29:32.881Z,-70
2019-05-09T11:30:33.079Z,-71
2019-05-09T11:31:33.053Z,-71
2019-05-09T11:32:35.475Z,-74
2019-05-09T11:33:38.444Z,-73
2019-05-09T11:34:37.539Z,-75
2019-05-09T11:35:34.072Z,-77
2019-05-09T11:36:37.673Z,-73
2019-05-09T11:37:38.426Z,-74
2019-05-09T11:38:43.477Z,-73
2019-05-09T11:38:44.100Z,-73
2019-05-09T11:39:41.981Z,-74
2019-05-09T11:40:39.669Z,-73
2019-05-09T11:41:38.674Z,-73
2019-05-09T11:42:38.179Z,-74
2019-05-09T11:43:34.713Z,-74
2019-05-09T11:44:38.513Z,-76
2019-05-09T11:45:40.194Z,-72
2019-05-09T11:46:40.629Z,-73
2019-05-09T11:47:45.929Z,-71
2019-05-09T11:47:46.512Z,-71
2019-05-09T11:48:40.845Z,-72
2019-05-09T11:49:40.814Z,-74
2019-05-09T11:50:40.562Z,-74
2019-05-09T11:51:39.652Z,-75
2019-05-09T11:52:39.766Z,-75
2019-05-09T11:53:44.163Z,-76
2019-05-09T11:54:41.823Z,-76
2019-05-09T11:55:43.207Z,-78
2019-05-09T11:56:40.548Z,-75
2019-05-09T11:57:41.045Z,-76
2019-05-09T11:58:40.703Z,-73
2019-05-09T11:59:40.993Z,-75
2019-05-09T12:00:42.240Z,-75
2019-05-09T12:01:42.630Z,-73
2019-05-09T12:02:42.151Z,-76
2019-05-09T12:03:39.744Z,-74
2019-05-09T12:04:38.049Z,-74
2019-05-09T12:05:38.969Z,-77
2019-05-09T12:06:38.404Z,-76
2019-05-09T12:07:40.185Z,-76
2019-05-09T12:08:38.841Z,-77
2019-05-09T12:09:38.667Z,-76
2019-05-09T12:10:48.108Z,-78
2019-05-09T12:11:48.244Z,-75
2019-05-09T12:12:49.237Z,-75
2019-05-09T12:13:49.261Z,-75
2019-05-09T12:14:48.382Z,-74
2019-05-09T12:15:48.963Z,-74
2019-05-09T12:16:47.847Z,-76
2019-05-09T12:17:57.454Z,-74
2019-05-09T12:17:58.167Z,-74
2019-05-09T12:18:02.577Z,-74
2019-05-09T12:18:48.776Z,-72
2019-05-09T12:19:45.772Z,-71
2019-05-09T12:20:45.172Z,-70
2019-05-09T12:21:47.948Z,-72
2019-05-09T12:22:43.475Z,-73
2019-05-09T12:23:48.815Z,-73
2019-05-09T12:24:48.971Z,-73
2019-05-09T12:25:47.896Z,-74
2019-05-09T12:26:50.098Z,-74
2019-05-09T12:27:49.638Z,-73
2019-05-09T12:28:48.919Z,-72
2019-05-09T12:29:49.955Z,-71
2019-05-09T12:30:50.174Z,-74
2019-05-09T12:31:48.557Z,-74
2019-05-09T12:32:52.298Z,-70
2019-05-09T12:33:52.059Z,-64
2019-05-09T12:34:51.222Z,-64
2019-05-09T12:35:53.634Z,-64
2019-05-09T12:36:51.705Z,-64
2019-05-09T12:37:49.660Z,-64
2019-05-09T12:38:50.295Z,-64
2019-05-09T12:39:48.297Z,-63
2019-05-09T12:40:48.259Z,-64
2019-05-09T12:41:48.216Z,-64
2019-05-09T12:42:50.127Z,-63
2019-05-09T12:43:57.427Z,-64
2019-05-09T12:44:59.795Z,-63
2019-05-09T12:45:59.037Z,-63
2019-05-09T12:46:58.132Z,-62
2019-05-09T12:48:07.515Z,-63
2019-05-09T12:48:11.017Z,-63
2019-05-09T12:48:11.734Z,-63
2019-05-09T12:48:55.661Z,-63
2019-05-09T12:49:54.343Z,-63
2019-05-09T12:50:58.392Z,-64
2019-05-09T12:51:57.606Z,-64
2019-05-09T12:52:54.863Z,-64
2019-05-09T12:53:53.666Z,-66
2019-05-09T12:54:52.488Z,-69
2019-05-09T12:55:50.861Z,-65
2019-05-09T12:56:51.299Z,-74
2019-05-09T12:57:49.107Z,-65
2019-05-09T12:58:49.761Z,-64
2019-05-09T12:59:52.901Z,-64
2019-05-09T13:00:51.987Z,-64
2019-05-09T13:01:52.743Z,-64
2019-05-09T13:02:51.199Z,-64
2019-05-09T13:03:49.765Z,-63
2019-05-09T13:04:56.486Z,-63
2019-05-09T13:05:57.480Z,-64
2019-05-09T13:06:54.510Z,-64
2019-05-09T13:07:53.674Z,-64
2019-05-09T13:08:58.663Z,-64
2019-05-09T13:09:59.965Z,-64
2019-05-09T13:11:08.022Z,-63
2019-05-09T13:12:03.878Z,-63
2019-05-09T13:13:02.858Z,-63
2019-05-09T13:14:02.847Z,-74